Coppermine, Canada
Current Conditions -  °F | °C
As of 7:00 AM on Friday 28 Nov 2014 (Local Time) from CYCO Reporting Station
Broken Clouds Broken Clouds  
Wind Chill: -37°   Ceiling: 4000
Heat Index: -22°   Visibility: 8mi
Dew Point: -26°   Wind: 24mph
Humidity: 71%   Direction: 240°WSW
Pressure: 29.94"   Gusts: NA
Location:  67.83°N, 115.08°W
Report Text: CYCO 281400Z 24021KT 8SM FEW012 BKN040 M22/M26 A2994 RMK SF2SC2SLP143
Loading
Personal Weather Stations






























Interactive Weather Map New forecast layout! Learn more

10-Day Weather Forecast

Advertisements
Track Severe Weather on mobile